sensor_id;sensor_type;location;lat;lon;timestamp;pressure;altitude;pressure_sealevel;temperature;humidity
44359;BME280;30077;52.474;13.326;2022-09-27T00:01:09;99028.97;;;12.21;88.50
44359;BME280;30077;52.474;13.326;2022-09-27T00:06:24;99015.00;;;12.17;88.59
44359;BME280;30077;52.474;13.326;2022-09-27T00:11:34;99008.81;;;12.17;88.44
44359;BME280;30077;52.474;13.326;2022-09-27T00:16:36;98995.69;;;12.14;88.28
44359;BME280;30077;52.474;13.326;2022-09-27T00:21:37;98990.44;;;12.12;88.26
44359;BME280;30077;52.474;13.326;2022-09-27T00:26:37;98989.59;;;12.12;88.13
44359;BME280;30077;52.474;13.326;2022-09-27T00:31:38;98999.28;;;12.13;87.92
44359;BME280;30077;52.474;13.326;2022-09-27T00:36:38;98985.94;;;12.13;87.45
44359;BME280;30077;52.474;13.326;2022-09-27T00:41:39;98987.88;;;12.11;87.27
44359;BME280;30077;52.474;13.326;2022-09-27T00:46:44;98974.53;;;12.11;87.16
44359;BME280;30077;52.474;13.326;2022-09-27T00:51:51;98969.19;;;12.11;87.39
44359;BME280;30077;52.474;13.326;2022-09-27T00:56:53;98970.03;;;12.11;87.46
44359;BME280;30077;52.474;13.326;2022-09-27T01:01:54;98949.72;;;12.09;87.48
44359;BME280;30077;52.474;13.326;2022-09-27T01:06:55;98946.34;;;12.07;87.96
44359;BME280;30077;52.474;13.326;2022-09-27T01:12:30;98939.31;;;12.06;87.93
44359;BME280;30077;52.474;13.326;2022-09-27T01:39:57;98914.50;;;12.03;87.60
44359;BME280;30077;52.474;13.326;2022-09-27T01:45:15;98907.47;;;12.02;87.67
44359;BME280;30077;52.474;13.326;2022-09-27T01:55:30;98883.63;;;12.11;87.39
44359;BME280;30077;52.474;13.326;2022-09-27T02:00:32;98884.00;;;12.17;87.04
44359;BME280;30077;52.474;13.326;2022-09-27T02:05:41;98878.06;;;12.14;86.76
44359;BME280;30077;52.474;13.326;2022-09-27T02:10:44;98862.00;;;12.14;86.96
44359;BME280;30077;52.474;13.326;2022-09-27T02:16:11;98856.66;;;12.14;86.86
44359;BME280;30077;52.474;13.326;2022-09-27T02:21:10;98851.09;;;12.17;86.75
44359;BME280;30077;52.474;13.326;2022-09-27T02:26:25;98846.34;;;12.20;86.60
44359;BME280;30077;52.474;13.326;2022-09-27T02:31:26;98842.44;;;12.24;85.95
44359;BME280;30077;52.474;13.326;2022-09-27T02:36:27;98828.94;;;12.26;86.18
44359;BME280;30077;52.474;13.326;2022-09-27T02:41:28;98833.06;;;12.30;85.54
44359;BME280;30077;52.474;13.326;2022-09-27T02:51:46;98825.28;;;12.27;86.61
44359;BME280;30077;52.474;13.326;2022-09-27T02:57:03;98815.19;;;12.31;86.57
44359;BME280;30077;52.474;13.326;2022-09-27T03:07:31;98803.88;;;12.27;87.98
44359;BME280;30077;52.474;13.326;2022-09-27T03:12:32;98817.75;;;12.32;87.60
44359;BME280;30077;52.474;13.326;2022-09-27T03:17:32;98808.28;;;12.28;87.33
44359;BME280;30077;52.474;13.326;2022-09-27T03:22:33;98808.38;;;12.26;87.43
44359;BME280;30077;52.474;13.326;2022-09-27T03:27:33;98794.91;;;12.28;87.54
44359;BME280;30077;52.474;13.326;2022-09-27T03:32:34;98783.22;;;12.29;87.56
44359;BME280;30077;52.474;13.326;2022-09-27T03:37:34;98785.06;;;12.28;87.75
44359;BME280;30077;52.474;13.326;2022-09-27T03:42:34;98787.38;;;12.22;89.61
44359;BME280;30077;52.474;13.326;2022-09-27T03:47:39;98784.72;;;12.22;90.81
44359;BME280;30077;52.474;13.326;2022-09-27T03:52:39;98784.97;;;12.19;92.08
44359;BME280;30077;52.474;13.326;2022-09-27T03:57:45;98775.25;;;12.18;92.77
44359;BME280;30077;52.474;13.326;2022-09-27T04:02:46;98767.97;;;12.09;95.55
44359;BME280;30077;52.474;13.326;2022-09-27T04:07:49;98762.28;;;12.02;96.59
44359;BME280;30077;52.474;13.326;2022-09-27T04:12:49;98765.31;;;11.97;97.27
44359;BME280;30077;52.474;13.326;2022-09-27T04:17:50;98759.50;;;11.92;99.09
44359;BME280;30077;52.474;13.326;2022-09-27T04:22:50;98755.38;;;11.88;99.30
44359;BME280;30077;52.474;13.326;2022-09-27T04:27:50;98757.09;;;11.89;100.00
44359;BME280;30077;52.474;13.326;2022-09-27T04:32:53;98762.41;;;11.89;100.00
44359;BME280;30077;52.474;13.326;2022-09-27T04:37:54;98755.38;;;11.88;100.00
44359;BME280;30077;52.474;13.326;2022-09-27T04:42:55;98755.63;;;11.85;100.00
44359;BME280;30077;52.474;13.326;2022-09-27T04:47:55;98754.16;;;11.81;100.00
44359;BME280;30077;52.474;13.326;2022-09-27T04:52:55;98754.63;;;11.75;100.00
44359;BME280;30077;52.474;13.326;2022-09-27T04:57:56;98755.38;;;11.66;100.00
44359;BME280;30077;52.474;13.326;2022-09-27T05:02:56;98756.59;;;11.62;100.00
44359;BME280;30077;52.474;13.326;2022-09-27T05:07:56;98760.59;;;11.56;100.00
44359;BME280;30077;52.474;13.326;2022-09-27T05:12:57;98752.47;;;11.57;100.00
44359;BME280;30077;52.474;13.326;2022-09-27T05:17:57;98756.84;;;11.59;100.00
44359;BME280;30077;52.474;13.326;2022-09-27T05:22:58;98751.25;;;11.62;100.00
44359;BME280;30077;52.474;13.326;2022-09-27T05:27:58;98753.06;;;11.61;100.00
44359;BME280;30077;52.474;13.326;2022-09-27T05:32:58;98761.69;;;11.53;100.00
44359;BME280;30077;52.474;13.326;2022-09-27T05:37:59;98762.44;;;11.55;100.00
44359;BME280;30077;52.474;13.326;2022-09-27T05:42:59;98753.69;;;11.53;100.00
44359;BME280;30077;52.474;13.326;2022-09-27T05:48:01;98754.03;;;11.60;100.00
44359;BME280;30077;52.474;13.326;2022-09-27T05:53:02;98757.56;;;11.72;100.00
44359;BME280;30077;52.474;13.326;2022-09-27T05:58:06;98755.00;;;11.70;100.00
44359;BME280;30077;52.474;13.326;2022-09-27T06:03:09;98743.94;;;11.75;100.00
44359;BME280;30077;52.474;13.326;2022-09-27T06:08:12;98751.50;;;11.70;100.00
44359;BME280;30077;52.474;13.326;2022-09-27T06:13:14;98751.25;;;11.73;100.00
44359;BME280;30077;52.474;13.326;2022-09-27T06:18:15;98750.50;;;11.82;100.00
44359;BME280;30077;52.474;13.326;2022-09-27T06:23:19;98743.84;;;11.88;100.00
44359;BME280;30077;52.474;13.326;2022-09-27T06:28:21;98747.34;;;11.99;100.00
44359;BME280;30077;52.474;13.326;2022-09-27T06:33:22;98753.66;;;12.10;100.00
44359;BME280;30077;52.474;13.326;2022-09-27T06:38:24;98751.69;;;12.12;100.00
44359;BME280;30077;52.474;13.326;2022-09-27T06:43:24;98747.53;;;12.19;100.00
44359;BME280;30077;52.474;13.326;2022-09-27T06:48:25;98754.91;;;12.26;100.00
44359;BME280;30077;52.474;13.326;2022-09-27T06:53:25;98760.84;;;12.30;100.00
44359;BME280;30077;52.474;13.326;2022-09-27T06:58:29;98756.03;;;12.24;100.00
44359;BME280;30077;52.474;13.326;2022-09-27T07:03:49;98754.56;;;12.20;100.00
44359;BME280;30077;52.474;13.326;2022-09-27T07:08:52;98769.63;;;12.32;100.00
44359;BME280;30077;52.474;13.326;2022-09-27T07:13:53;98753.38;;;12.45;100.00
44359;BME280;30077;52.474;13.326;2022-09-27T07:18:53;98758.13;;;12.41;100.00
44359;BME280;30077;52.474;13.326;2022-09-27T07:23:54;98758.13;;;12.41;100.00
44359;BME280;30077;52.474;13.326;2022-09-27T07:28:54;98768.84;;;12.41;100.00
44359;BME280;30077;52.474;13.326;2022-09-27T07:33:55;98754.75;;;12.39;100.00
44359;BME280;30077;52.474;13.326;2022-09-27T07:38:58;98759.59;;;12.45;100.00
44359;BME280;30077;52.474;13.326;2022-09-27T07:43:58;98759.28;;;12.60;100.00
44359;BME280;30077;52.474;13.326;2022-09-27T07:48:58;98760.41;;;12.78;100.00
44359;BME280;30077;52.474;13.326;2022-09-27T07:53:59;98758.88;;;12.96;100.00
44359;BME280;30077;52.474;13.326;2022-09-27T07:59:00;98757.28;;;12.94;100.00
44359;BME280;30077;52.474;13.326;2022-09-27T08:04:01;98768.13;;;12.92;100.00
44359;BME280;30077;52.474;13.326;2022-09-27T08:09:05;98774.25;;;12.83;100.00
44359;BME280;30077;52.474;13.326;2022-09-27T08:14:05;98772.25;;;12.75;100.00
44359;BME280;30077;52.474;13.326;2022-09-27T08:19:06;98772.03;;;12.67;100.00
44359;BME280;30077;52.474;13.326;2022-09-27T08:24:06;98767.78;;;12.65;100.00
44359;BME280;30077;52.474;13.326;2022-09-27T08:29:07;98770.47;;;12.65;100.00
44359;BME280;30077;52.474;13.326;2022-09-27T08:34:07;98772.25;;;12.75;100.00
44359;BME280;30077;52.474;13.326;2022-09-27T08:39:08;98778.13;;;12.90;100.00
44359;BME280;30077;52.474;13.326;2022-09-27T08:49:27;98785.44;;;13.09;100.00
44359;BME280;30077;52.474;13.326;2022-09-27T08:54:32;98775.38;;;13.01;100.00
44359;BME280;30077;52.474;13.326;2022-09-27T08:59:42;98782.63;;;12.90;100.00
44359;BME280;30077;52.474;13.326;2022-09-27T09:04:48;98783.97;;;12.84;100.00
44359;BME280;30077;52.474;13.326;2022-09-27T09:10:40;98777.94;;;12.82;100.00
44359;BME280;30077;52.474;13.326;2022-09-27T09:36:02;98766.16;;;14.17;100.00
44359;BME280;30077;52.474;13.326;2022-09-27T09:41:16;98772.41;;;14.47;100.00
44359;BME280;30077;52.474;13.326;2022-09-27T09:46:22;98779.91;;;14.43;100.00
44359;BME280;30077;52.474;13.326;2022-09-27T09:51:36;98777.19;;;14.33;100.00
44359;BME280;30077;52.474;13.326;2022-09-27T09:56:46;98767.19;;;14.45;100.00
44359;BME280;30077;52.474;13.326;2022-09-27T10:01:47;98758.56;;;14.41;100.00
44359;BME280;30077;52.474;13.326;2022-09-27T10:06:48;98765.41;;;14.65;99.60
44359;BME280;30077;52.474;13.326;2022-09-27T10:11:49;98754.00;;;15.29;97.66
44359;BME280;30077;52.474;13.326;2022-09-27T10:16:54;98756.13;;;16.46;90.92
44359;BME280;30077;52.474;13.326;2022-09-27T10:22:01;98762.59;;;16.71;86.58
44359;BME280;30077;52.474;13.326;2022-09-27T10:27:02;98766.31;;;16.24;88.53
44359;BME280;30077;52.474;13.326;2022-09-27T10:32:04;98756.13;;;15.73;89.60
44359;BME280;30077;52.474;13.326;2022-09-27T10:37:20;98751.63;;;15.54;90.91
44359;BME280;30077;52.474;13.326;2022-09-27T10:42:35;98748.84;;;15.46;90.06
44359;BME280;30077;52.474;13.326;2022-09-27T10:47:36;98746.50;;;15.23;91.83
44359;BME280;30077;52.474;13.326;2022-09-27T10:52:37;98745.28;;;15.08;93.68
44359;BME280;30077;52.474;13.326;2022-09-27T10:57:38;98748.41;;;14.93;94.02
44359;BME280;30077;52.474;13.326;2022-09-27T11:02:40;98752.09;;;14.73;96.08
44359;BME280;30077;52.474;13.326;2022-09-27T11:07:50;98741.66;;;14.51;99.22
44359;BME280;30077;52.474;13.326;2022-09-27T11:13:14;98745.75;;;14.74;100.00
44359;BME280;30077;52.474;13.326;2022-09-27T11:18:55;98744.28;;;15.09;97.80
44359;BME280;30077;52.474;13.326;2022-09-27T11:40:31;98787.59;;;14.07;100.00
44359;BME280;30077;52.474;13.326;2022-09-27T11:45:52;98794.50;;;12.76;100.00
44359;BME280;30077;52.474;13.326;2022-09-27T11:50:59;98794.09;;;11.82;100.00
44359;BME280;30077;52.474;13.326;2022-09-27T11:56:19;98801.75;;;11.42;100.00
44359;BME280;30077;52.474;13.326;2022-09-27T12:07:10;98804.16;;;11.23;100.00
44359;BME280;30077;52.474;13.326;2022-09-27T12:12:25;98810.97;;;11.38;100.00
44359;BME280;30077;52.474;13.326;2022-09-27T12:17:34;98806.63;;;11.48;100.00
44359;BME280;30077;52.474;13.326;2022-09-27T12:23:17;98802.13;;;11.71;100.00
44359;BME280;30077;52.474;13.326;2022-09-27T12:28:37;98805.63;;;12.17;100.00
44359;BME280;30077;52.474;13.326;2022-09-27T12:44:08;98810.69;;;13.89;100.00
44359;BME280;30077;52.474;13.326;2022-09-27T12:54:30;98809.91;;;13.46;100.00
44359;BME280;30077;52.474;13.326;2022-09-27T13:10:49;98821.53;;;13.57;100.00
44359;BME280;30077;52.474;13.326;2022-09-27T13:15:57;98824.13;;;13.37;100.00
44359;BME280;30077;52.474;13.326;2022-09-27T13:20:58;98827.41;;;13.51;100.00
44359;BME280;30077;52.474;13.326;2022-09-27T13:31:04;98826.97;;;14.07;100.00
44359;BME280;30077;52.474;13.326;2022-09-27T13:41:17;98835.66;;;13.59;100.00
44359;BME280;30077;52.474;13.326;2022-09-27T13:46:20;98824.09;;;13.89;100.00
44359;BME280;30077;52.474;13.326;2022-09-27T13:51:26;98826.66;;;14.00;100.00
44359;BME280;30077;52.474;13.326;2022-09-27T14:01:39;98844.47;;;13.70;100.00
44359;BME280;30077;52.474;13.326;2022-09-27T14:06:44;98853.09;;;13.53;100.00
44359;BME280;30077;52.474;13.326;2022-09-27T14:11:58;98865.78;;;13.51;100.00
44359;BME280;30077;52.474;13.326;2022-09-27T14:17:01;98866.16;;;13.67;100.00
44359;BME280;30077;52.474;13.326;2022-09-27T14:22:19;98858.09;;;13.88;100.00
44359;BME280;30077;52.474;13.326;2022-09-27T14:27:28;98862.88;;;13.85;100.00
44359;BME280;30077;52.474;13.326;2022-09-27T14:32:31;98876.56;;;13.61;100.00
44359;BME280;30077;52.474;13.326;2022-09-27T14:37:33;98877.03;;;13.13;100.00
44359;BME280;30077;52.474;13.326;2022-09-27T14:42:35;98871.75;;;13.01;100.00
44359;BME280;30077;52.474;13.326;2022-09-27T14:47:44;98873.91;;;12.75;100.00
44359;BME280;30077;52.474;13.326;2022-09-27T14:52:45;98885.00;;;12.60;100.00
44359;BME280;30077;52.474;13.326;2022-09-27T14:57:51;98898.31;;;12.50;100.00
44359;BME280;30077;52.474;13.326;2022-09-27T15:02:54;98895.72;;;12.48;100.00
44359;BME280;30077;52.474;13.326;2022-09-27T15:07:56;98906.81;;;12.44;100.00
44359;BME280;30077;52.474;13.326;2022-09-27T15:12:57;98906.09;;;12.42;100.00
44359;BME280;30077;52.474;13.326;2022-09-27T15:18:01;98916.91;;;12.40;100.00
44359;BME280;30077;52.474;13.326;2022-09-27T15:23:04;98910.09;;;12.47;100.00
44359;BME280;30077;52.474;13.326;2022-09-27T15:33:19;98921.72;;;12.69;100.00
44359;BME280;30077;52.474;13.326;2022-09-27T15:38:30;98930.97;;;12.65;100.00
44359;BME280;30077;52.474;13.326;2022-09-27T15:43:34;98925.31;;;12.36;100.00
44359;BME280;30077;52.474;13.326;2022-09-27T15:48:36;98938.78;;;12.12;100.00
44359;BME280;30077;52.474;13.326;2022-09-27T15:53:41;98938.75;;;11.78;100.00
44359;BME280;30077;52.474;13.326;2022-09-27T15:58:42;98945.88;;;11.55;100.00
44359;BME280;30077;52.474;13.326;2022-09-27T16:03:43;98957.06;;;11.36;100.00
44359;BME280;30077;52.474;13.326;2022-09-27T16:08:44;98944.56;;;11.01;100.00
44359;BME280;30077;52.474;13.326;2022-09-27T16:13:44;98932.50;;;10.96;100.00
44359;BME280;30077;52.474;13.326;2022-09-27T16:18:45;98941.72;;;10.92;100.00
44359;BME280;30077;52.474;13.326;2022-09-27T16:23:45;98955.47;;;10.98;100.00
44359;BME280;30077;52.474;13.326;2022-09-27T16:28:45;98960.03;;;10.96;100.00
44359;BME280;30077;52.474;13.326;2022-09-27T16:33:49;98972.13;;;10.89;100.00
44359;BME280;30077;52.474;13.326;2022-09-27T16:38:50;98971.41;;;10.87;100.00
44359;BME280;30077;52.474;13.326;2022-09-27T16:43:51;98970.59;;;10.74;100.00
44359;BME280;30077;52.474;13.326;2022-09-27T16:48:51;98961.25;;;10.68;100.00
44359;BME280;30077;52.474;13.326;2022-09-27T16:53:51;98979.41;;;10.50;100.00
44359;BME280;30077;52.474;13.326;2022-09-27T16:58:51;98985.50;;;10.40;100.00
44359;BME280;30077;52.474;13.326;2022-09-27T17:03:52;98989.16;;;10.26;100.00
44359;BME280;30077;52.474;13.326;2022-09-27T17:08:53;98990.50;;;10.19;100.00
44359;BME280;30077;52.474;13.326;2022-09-27T17:13:53;98996.50;;;10.09;100.00
44359;BME280;30077;52.474;13.326;2022-09-27T17:18:54;98990.75;;;10.03;100.00
44359;BME280;30077;52.474;13.326;2022-09-27T17:23:54;98994.78;;;9.96;100.00
44359;BME280;30077;52.474;13.326;2022-09-27T17:28:55;99002.22;;;9.91;100.00
44359;BME280;30077;52.474;13.326;2022-09-27T17:33:56;99006.81;;;9.88;100.00
44359;BME280;30077;52.474;13.326;2022-09-27T17:38:58;99006.38;;;9.82;100.00
44359;BME280;30077;52.474;13.326;2022-09-27T17:43:59;99000.94;;;9.83;100.00
44359;BME280;30077;52.474;13.326;2022-09-27T17:49:00;99007.63;;;9.76;100.00
44359;BME280;30077;52.474;13.326;2022-09-27T17:54:21;99013.28;;;9.72;100.00
44359;BME280;30077;52.474;13.326;2022-09-27T17:59:22;99017.97;;;9.68;100.00
44359;BME280;30077;52.474;13.326;2022-09-27T18:04:22;99022.44;;;9.68;100.00
44359;BME280;30077;52.474;13.326;2022-09-27T18:09:22;99020.53;;;9.70;100.00
44359;BME280;30077;52.474;13.326;2022-09-27T18:14:23;99027.16;;;9.77;100.00
44359;BME280;30077;52.474;13.326;2022-09-27T18:19:25;99027.47;;;9.85;100.00
44359;BME280;30077;52.474;13.326;2022-09-27T18:24:25;99028.22;;;9.87;100.00
44359;BME280;30077;52.474;13.326;2022-09-27T18:29:27;99028.41;;;9.84;100.00
44359;BME280;30077;52.474;13.326;2022-09-27T18:34:27;99038.53;;;9.79;100.00
44359;BME280;30077;52.474;13.326;2022-09-27T18:39:28;99034.59;;;9.72;100.00
44359;BME280;30077;52.474;13.326;2022-09-27T18:44:28;99042.25;;;9.63;100.00
44359;BME280;30077;52.474;13.326;2022-09-27T18:49:28;99046.06;;;9.59;100.00
44359;BME280;30077;52.474;13.326;2022-09-27T18:54:32;99047.63;;;9.49;100.00
44359;BME280;30077;52.474;13.326;2022-09-27T18:59:34;99053.56;;;9.40;100.00
44359;BME280;30077;52.474;13.326;2022-09-27T19:04:34;99052.38;;;9.31;100.00
44359;BME280;30077;52.474;13.326;2022-09-27T19:09:34;99057.03;;;9.28;100.00
44359;BME280;30077;52.474;13.326;2022-09-27T19:14:35;99065.13;;;9.26;100.00
44359;BME280;30077;52.474;13.326;2022-09-27T19:19:35;99059.34;;;9.20;100.00
44359;BME280;30077;52.474;13.326;2022-09-27T19:24:35;99060.78;;;9.11;100.00
44359;BME280;30077;52.474;13.326;2022-09-27T19:29:35;99061.47;;;9.00;100.00
44359;BME280;30077;52.474;13.326;2022-09-27T19:34:36;99066.44;;;8.92;100.00
44359;BME280;30077;52.474;13.326;2022-09-27T19:39:37;99066.06;;;8.84;100.00
44359;BME280;30077;52.474;13.326;2022-09-27T19:44:37;99063.03;;;8.90;100.00
44359;BME280;30077;52.474;13.326;2022-09-27T19:49:37;99074.22;;;8.95;100.00
44359;BME280;30077;52.474;13.326;2022-09-27T19:54:38;99071.75;;;8.92;100.00
44359;BME280;30077;52.474;13.326;2022-09-27T19:59:38;99064.47;;;8.81;100.00
44359;BME280;30077;52.474;13.326;2022-09-27T20:04:41;99071.97;;;8.75;100.00
44359;BME280;30077;52.474;13.326;2022-09-27T20:09:41;99063.78;;;8.78;100.00
44359;BME280;30077;52.474;13.326;2022-09-27T20:14:42;99067.78;;;8.85;100.00
44359;BME280;30077;52.474;13.326;2022-09-27T20:19:42;99063.97;;;8.75;100.00
44359;BME280;30077;52.474;13.326;2022-09-27T20:24:43;99060.31;;;8.63;100.00
44359;BME280;30077;52.474;13.326;2022-09-27T20:29:43;99056.44;;;8.54;100.00
44359;BME280;30077;52.474;13.326;2022-09-27T20:34:43;99055.94;;;8.48;100.00
44359;BME280;30077;52.474;13.326;2022-09-27T20:39:44;99062.47;;;8.42;100.00
44359;BME280;30077;52.474;13.326;2022-09-27T20:44:44;99066.22;;;8.39;100.00
44359;BME280;30077;52.474;13.326;2022-09-27T20:49:44;99064.03;;;8.46;100.00
44359;BME280;30077;52.474;13.326;2022-09-27T20:54:45;99072.19;;;8.57;100.00
44359;BME280;30077;52.474;13.326;2022-09-27T20:59:45;99070.56;;;8.69;100.00
44359;BME280;30077;52.474;13.326;2022-09-27T21:04:45;99067.41;;;8.77;100.00
44359;BME280;30077;52.474;13.326;2022-09-27T21:09:46;99067.59;;;8.74;100.00
44359;BME280;30077;52.474;13.326;2022-09-27T21:14:46;99072.25;;;8.70;100.00
44359;BME280;30077;52.474;13.326;2022-09-27T21:19:46;99073.78;;;8.74;100.00
44359;BME280;30077;52.474;13.326;2022-09-27T21:24:46;99069.13;;;8.78;100.00
44359;BME280;30077;52.474;13.326;2022-09-27T21:29:47;99082.22;;;8.81;100.00
44359;BME280;30077;52.474;13.326;2022-09-27T21:34:47;99084.50;;;8.87;100.00
44359;BME280;30077;52.474;13.326;2022-09-27T21:39:48;99086.75;;;8.93;100.00
44359;BME280;30077;52.474;13.326;2022-09-27T21:44:48;99089.22;;;8.96;100.00
44359;BME280;30077;52.474;13.326;2022-09-27T21:49:49;99097.97;;;8.98;100.00
44359;BME280;30077;52.474;13.326;2022-09-27T21:54:49;99100.72;;;8.97;100.00
44359;BME280;30077;52.474;13.326;2022-09-27T21:59:49;99090.19;;;8.95;100.00
44359;BME280;30077;52.474;13.326;2022-09-27T22:04:49;99087.81;;;8.90;100.00
44359;BME280;30077;52.474;13.326;2022-09-27T22:09:50;99087.72;;;8.78;100.00
44359;BME280;30077;52.474;13.326;2022-09-27T22:14:50;99085.00;;;8.65;100.00
44359;BME280;30077;52.474;13.326;2022-09-27T22:19:50;99091.53;;;8.59;100.00
44359;BME280;30077;52.474;13.326;2022-09-27T22:24:50;99093.03;;;8.49;100.00
44359;BME280;30077;52.474;13.326;2022-09-27T22:29:51;99084.69;;;8.41;100.00
44359;BME280;30077;52.474;13.326;2022-09-27T22:34:51;99092.50;;;8.44;100.00
44359;BME280;30077;52.474;13.326;2022-09-27T22:39:52;99086.88;;;8.49;100.00
44359;BME280;30077;52.474;13.326;2022-09-27T22:44:52;99075.03;;;8.40;100.00
44359;BME280;30077;52.474;13.326;2022-09-27T22:49:53;99083.56;;;8.45;100.00
44359;BME280;30077;52.474;13.326;2022-09-27T22:54:54;99089.72;;;8.46;100.00
44359;BME280;30077;52.474;13.326;2022-09-27T22:59:54;99081.84;;;8.44;100.00
44359;BME280;30077;52.474;13.326;2022-09-27T23:04:54;99083.56;;;8.45;100.00
44359;BME280;30077;52.474;13.326;2022-09-27T23:09:55;99081.28;;;8.53;100.00
44359;BME280;30077;52.474;13.326;2022-09-27T23:14:55;99083.19;;;8.65;100.00
44359;BME280;30077;52.474;13.326;2022-09-27T23:19:56;99085.25;;;8.75;100.00
44359;BME280;30077;52.474;13.326;2022-09-27T23:24:56;99079.75;;;8.78;100.00
44359;BME280;30077;52.474;13.326;2022-09-27T23:29:56;99076.16;;;8.79;100.00
44359;BME280;30077;52.474;13.326;2022-09-27T23:34:57;99078.59;;;8.82;100.00
44359;BME280;30077;52.474;13.326;2022-09-27T23:39:57;99083.91;;;8.82;100.00
44359;BME280;30077;52.474;13.326;2022-09-27T23:44:57;99081.06;;;8.85;100.00
44359;BME280;30077;52.474;13.326;2022-09-27T23:49:58;99085.81;;;8.94;100.00
44359;BME280;30077;52.474;13.326;2022-09-27T23:54:58;99090.94;;;8.97;100.00
44359;BME280;30077;52.474;13.326;2022-09-27T23:59:59;99086.28;;;9.01;100.00
